Flugplatz Neumünster

Für EDHN sind keine METAR/TAF Berichte vorhanden.
Es werden die Flugwettermeldungen vom Flugplatz Kiel-Holtenau in 35 km Entfernung angezeigt.

Bericht für EDHK

vom 07.03. um 02:20 UTC

Wind 15 kt aus 280°

Sichtweite 10 km oder mehr

bedeckt in 2400 ft

Temperatur 3.0°C

Taupunkt -2.0°C

Luftfeuchtigkeit 70%

Luftdruck 1023 hPa

EDHK 070220Z AUTO 28015KT 9999 // OVC024/// 03/M02 Q1023
Keine Prognose (TAF) verfügbar.
Impressum